createdAt,value
2023-05-12T00:02:26.959Z,8.15
2023-05-12T00:04:57.705Z,4.22
2023-05-12T00:07:27.266Z,6.32
2023-05-12T00:09:54.844Z,4.95
2023-05-12T00:12:23.675Z,5.28
2023-05-12T00:14:50.181Z,4.00
2023-05-12T00:17:19.234Z,4.75
2023-05-12T00:19:45.744Z,4.15
2023-05-12T00:22:15.456Z,4.07
2023-05-12T00:24:49.313Z,4.97
2023-05-12T00:27:18.145Z,6.25
2023-05-12T00:29:47.308Z,5.28
2023-05-12T00:32:14.248Z,4.30
2023-05-12T00:34:43.377Z,4.55
2023-05-12T00:37:14.798Z,4.47
2023-05-12T00:39:46.121Z,3.95
2023-05-12T00:42:12.787Z,3.80
2023-05-12T00:44:39.347Z,3.95
2023-05-12T00:47:06.329Z,4.78
2023-05-12T00:49:37.701Z,4.07
2023-05-12T00:52:04.720Z,3.88
2023-05-12T00:54:31.566Z,3.63
2023-05-12T00:57:01.370Z,3.25
2023-05-12T00:59:29.676Z,3.60
2023-05-12T01:01:56.539Z,3.35
2023-05-12T01:04:24.090Z,3.58
2023-05-12T01:07:05.461Z,3.60
2023-05-12T01:09:36.808Z,3.65
2023-05-12T01:12:03.941Z,3.17
2023-05-12T01:14:30.607Z,3.60
2023-05-12T01:17:03.687Z,5.68
2023-05-12T01:19:54.891Z,3.75
2023-05-12T01:22:26.637Z,3.85
2023-05-12T01:24:59.605Z,3.53
2023-05-12T01:27:27.408Z,3.53
2023-05-12T01:29:58.437Z,5.03
2023-05-12T01:32:28.237Z,3.63
2023-05-12T01:34:54.872Z,3.97
2023-05-12T01:37:26.727Z,3.35
2023-05-12T01:39:56.564Z,4.85
2023-05-12T01:42:24.131Z,3.22
2023-05-12T01:44:51.034Z,3.15
2023-05-12T01:47:20.922Z,3.67
2023-05-12T01:49:47.500Z,3.08
2023-05-12T01:52:16.335Z,3.33
2023-05-12T01:54:42.862Z,3.00
2023-05-12T01:57:09.762Z,3.72
2023-05-12T01:59:36.213Z,3.13
2023-05-12T02:02:03.003Z,2.95
2023-05-12T02:04:29.724Z,2.63
2023-05-12T02:06:58.945Z,4.43
2023-05-12T02:09:25.490Z,2.65
2023-05-12T02:11:52.034Z,2.75
2023-05-12T02:14:21.180Z,2.28
2023-05-12T02:16:55.189Z,2.72
2023-05-12T02:19:22.196Z,2.17
2023-05-12T02:21:53.623Z,2.35
2023-05-12T02:24:24.883Z,2.40
2023-05-12T02:26:53.913Z,2.72
2023-05-12T02:29:20.455Z,2.30
2023-05-12T02:31:49.227Z,2.88
2023-05-12T02:34:15.989Z,2.70
2023-05-12T02:36:42.790Z,2.85
2023-05-12T02:39:09.320Z,3.67
2023-05-12T02:41:38.258Z,3.47
2023-05-12T02:44:07.402Z,3.20
2023-05-12T02:46:36.016Z,4.72
2023-05-12T02:49:02.685Z,3.65
2023-05-12T02:51:31.980Z,4.85
2023-05-12T02:54:01.530Z,4.53
2023-05-12T02:56:33.970Z,4.13
2023-05-12T02:59:02.962Z,4.80
2023-05-12T03:01:29.437Z,5.25
2023-05-12T03:03:58.539Z,7.53
2023-05-12T03:06:25.065Z,4.88
2023-05-12T03:08:52.022Z,5.97
2023-05-12T03:11:21.412Z,8.23
2023-05-12T03:13:50.707Z,7.70
2023-05-12T03:16:19.597Z,7.05
2023-05-12T03:18:49.105Z,7.45
2023-05-12T03:21:17.990Z,8.48
2023-05-12T03:23:44.469Z,8.23
2023-05-12T03:26:15.590Z,11.10
2023-05-12T03:28:42.061Z,9.55
2023-05-12T03:31:08.562Z,10.85
2023-05-12T03:33:35.031Z,10.75
2023-05-12T03:36:03.792Z,11.23
2023-05-12T03:38:30.520Z,11.00
2023-05-12T03:41:06.760Z,10.13
2023-05-12T03:43:33.717Z,10.63
2023-05-12T03:46:00.403Z,10.43
2023-05-12T03:48:28.140Z,12.38
2023-05-12T03:50:54.701Z,12.05
2023-05-12T03:53:21.970Z,11.63
2023-05-12T03:55:51.354Z,12.30
2023-05-12T03:58:18.256Z,12.10
2023-05-12T04:00:45.132Z,10.48
2023-05-12T04:03:11.979Z,15.40
2023-05-12T04:05:39.599Z,13.27
2023-05-12T04:08:08.714Z,14.20
2023-05-12T04:10:44.598Z,13.23
2023-05-12T04:13:11.089Z,15.25
2023-05-12T04:15:37.647Z,16.08
2023-05-12T04:18:04.319Z,16.40
2023-05-12T04:20:30.955Z,17.02
2023-05-12T04:22:57.451Z,16.13
2023-05-12T04:25:26.589Z,14.73
2023-05-12T04:27:53.030Z,18.42
2023-05-12T04:30:24.524Z,16.40
2023-05-12T04:32:54.532Z,16.10
2023-05-12T04:35:21.173Z,17.52
2023-05-12T04:37:49.264Z,18.27
2023-05-12T04:40:16.421Z,19.15
2023-05-12T04:42:45.100Z,18.07
2023-05-12T04:45:12.022Z,22.42
2023-05-12T04:47:40.800Z,18.33
2023-05-12T04:50:13.063Z,23.75
2023-05-12T04:52:41.969Z,19.40
2023-05-12T04:55:11.109Z,20.60
2023-05-12T04:57:41.532Z,25.38
2023-05-12T05:00:13.379Z,19.08
2023-05-12T05:02:40.280Z,18.10
2023-05-12T05:05:07.411Z,20.13
2023-05-12T05:07:33.895Z,17.95
2023-05-12T05:10:03.507Z,19.83
2023-05-12T05:12:32.346Z,21.95
2023-05-12T05:15:01.110Z,23.23
2023-05-12T05:17:28.186Z,23.25
2023-05-12T05:19:58.983Z,22.00
2023-05-12T05:22:26.342Z,22.92
2023-05-12T05:24:55.149Z,27.20
2023-05-12T05:27:21.637Z,23.25
2023-05-12T05:29:49.336Z,24.50
2023-05-12T05:32:18.612Z,24.15
2023-05-12T05:34:49.921Z,21.77
2023-05-12T05:37:19.904Z,23.13
2023-05-12T05:39:46.501Z,27.52
2023-05-12T05:42:12.997Z,24.80
2023-05-12T05:44:39.484Z,28.77
2023-05-12T05:47:06.186Z,24.40
2023-05-12T05:49:35.071Z,25.00
2023-05-12T05:52:01.654Z,25.15
2023-05-12T05:54:28.181Z,27.23
2023-05-12T05:56:54.841Z,22.23
2023-05-12T05:59:21.355Z,25.17
2023-05-12T06:01:52.756Z,28.02
2023-05-12T06:04:19.453Z,23.75
2023-05-12T06:06:46.015Z,25.08
2023-05-12T06:09:12.750Z,27.60
2023-05-12T06:11:44.098Z,28.33
2023-05-12T06:14:11.743Z,26.20
2023-05-12T06:16:40.373Z,25.88
2023-05-12T06:19:07.114Z,26.05
2023-05-12T06:21:36.117Z,26.90
2023-05-12T06:24:03.634Z,24.30
2023-05-12T06:26:30.150Z,22.10
2023-05-12T06:28:59.192Z,27.33
2023-05-12T06:31:25.757Z,24.08
2023-05-12T06:33:57.134Z,22.52
2023-05-12T06:36:24.559Z,24.95
2023-05-12T06:38:51.140Z,22.77
2023-05-12T06:41:24.924Z,21.13
2023-05-12T06:43:52.271Z,21.65
2023-05-12T06:46:19.303Z,28.40
2023-05-12T06:48:48.500Z,23.95
2023-05-12T06:51:14.971Z,24.30
2023-05-12T06:53:44.157Z,24.45
2023-05-12T06:56:13.762Z,23.20
2023-05-12T06:58:43.514Z,25.25
2023-05-12T07:01:10.065Z,23.65
2023-05-12T07:03:39.121Z,24.65
2023-05-12T07:06:05.793Z,23.63
2023-05-12T07:08:34.716Z,21.52
2023-05-12T07:11:01.688Z,20.88
2023-05-12T07:13:30.431Z,23.33
2023-05-12T07:15:56.921Z,21.38
2023-05-12T07:18:24.160Z,24.75
2023-05-12T07:20:50.681Z,18.65
2023-05-12T07:23:17.187Z,17.63
2023-05-12T07:25:46.235Z,20.52
2023-05-12T07:28:15.391Z,19.23
2023-05-12T07:30:41.858Z,18.08
2023-05-12T07:33:10.735Z,20.15
2023-05-12T07:35:39.740Z,16.60
2023-05-12T07:38:06.465Z,21.42
2023-05-12T07:40:35.465Z,18.80
2023-05-12T07:43:02.710Z,17.80
2023-05-12T07:45:29.363Z,14.15
2023-05-12T07:47:55.906Z,15.45
2023-05-12T07:50:22.703Z,15.30
2023-05-12T07:52:54.107Z,21.30
2023-05-12T07:55:22.979Z,15.32
2023-05-12T07:57:52.723Z,14.20
2023-05-12T08:00:19.425Z,14.30
2023-05-12T08:02:48.933Z,15.60
2023-05-12T08:05:15.834Z,15.57
2023-05-12T08:07:43.846Z,13.17
2023-05-12T08:10:13.659Z,14.40
2023-05-12T08:12:43.033Z,13.27
2023-05-12T08:15:09.930Z,14.70
2023-05-12T08:17:36.558Z,12.83
2023-05-12T08:20:06.585Z,17.33
2023-05-12T08:22:35.665Z,13.23
2023-05-12T08:25:02.286Z,12.10
2023-05-12T08:27:29.639Z,13.73
2023-05-12T08:29:56.180Z,10.52
2023-05-12T08:32:22.890Z,12.73
2023-05-12T08:34:49.452Z,12.98
2023-05-12T08:37:19.767Z,12.27
2023-05-12T08:39:46.437Z,12.80
2023-05-12T08:42:44.338Z,11.07
2023-05-12T08:45:11.772Z,13.32
2023-05-12T08:47:38.907Z,11.52
2023-05-12T08:50:06.120Z,11.98
2023-05-12T08:52:36.654Z,15.23
2023-05-12T08:55:04.974Z,11.70
2023-05-12T08:57:32.175Z,9.65
2023-05-12T09:00:01.699Z,8.40
2023-05-12T09:02:44.682Z,8.57
2023-05-12T09:05:19.056Z,8.65
2023-05-12T09:07:49.627Z,8.05
2023-05-12T09:10:32.980Z,9.20
2023-05-12T09:13:38.388Z,7.00
2023-05-12T09:16:12.051Z,6.85
2023-05-12T09:18:53.844Z,6.85
2023-05-12T09:21:23.260Z,6.07
2023-05-12T09:24:06.542Z,8.30
2023-05-12T09:26:47.757Z,5.90
2023-05-12T09:29:24.031Z,6.25
2023-05-12T09:32:02.037Z,6.65
2023-05-12T09:34:29.783Z,8.20
2023-05-12T09:37:00.067Z,8.65
2023-05-12T09:39:26.754Z,5.32
2023-05-12T09:41:53.952Z,6.45
2023-05-12T09:44:21.472Z,10.25
2023-05-12T09:46:48.833Z,4.93
2023-05-12T09:49:26.764Z,5.65
2023-05-12T09:52:01.001Z,7.88
2023-05-12T09:54:32.104Z,5.60
2023-05-12T09:57:08.686Z,7.35
2023-05-12T09:59:38.440Z,5.73
2023-05-12T10:02:10.048Z,5.53
2023-05-12T10:04:45.503Z,6.57
2023-05-12T10:07:18.512Z,6.15
2023-05-12T10:09:51.307Z,6.18
2023-05-12T10:12:24.988Z,6.88
2023-05-12T10:14:52.296Z,4.35
2023-05-12T10:17:20.535Z,3.55
2023-05-12T10:19:47.647Z,4.32
2023-05-12T10:22:19.801Z,6.63
2023-05-12T10:24:47.313Z,7.55
2023-05-12T10:27:17.248Z,5.97
2023-05-12T10:29:48.167Z,4.07
2023-05-12T10:32:15.577Z,3.97
2023-05-12T10:34:42.152Z,4.28
2023-05-12T10:37:13.469Z,6.28
2023-05-12T10:39:53.041Z,4.63
2023-05-12T10:42:27.047Z,3.65
2023-05-12T10:44:56.269Z,3.55
2023-05-12T10:47:36.199Z,3.38
2023-05-12T10:50:05.560Z,3.22
2023-05-12T10:52:35.267Z,2.92
2023-05-12T10:55:04.021Z,3.00
2023-05-12T10:57:34.530Z,2.33
2023-05-12T11:00:02.972Z,4.20
2023-05-12T11:02:33.835Z,2.45
2023-05-12T11:05:13.696Z,3.17
2023-05-12T11:10:14.905Z,7.20
2023-05-12T11:12:46.308Z,2.72
2023-05-12T11:15:17.279Z,2.28
2023-05-12T11:17:44.534Z,3.90
2023-05-12T11:20:24.069Z,4.43
2023-05-12T11:22:55.456Z,2.88
2023-05-12T11:25:24.423Z,4.45
2023-05-12T11:27:53.798Z,6.68
2023-05-12T11:30:22.590Z,3.65
2023-05-12T11:33:00.628Z,2.50
2023-05-12T11:35:32.483Z,2.92
2023-05-12T11:38:02.999Z,5.13
2023-05-12T11:40:31.692Z,4.70
2023-05-12T11:43:10.350Z,6.25
2023-05-12T11:45:39.531Z,23.55
2023-05-12T11:48:11.450Z,3.30
2023-05-12T11:50:40.084Z,3.28
2023-05-12T11:53:14.922Z,2.67
2023-05-12T11:55:52.869Z,3.83
2023-05-12T11:58:30.645Z,2.53
2023-05-12T12:01:10.735Z,6.95
2023-05-12T12:03:47.685Z,3.35
2023-05-12T12:06:15.328Z,8.20
2023-05-12T12:08:59.847Z,4.75
2023-05-12T12:11:30.811Z,3.88
2023-05-12T12:14:00.902Z,2.70
2023-05-12T12:16:29.429Z,3.38
2023-05-12T12:18:56.541Z,2.60
2023-05-12T12:21:28.951Z,2.72
2023-05-12T12:23:55.462Z,6.53
2023-05-12T12:26:22.985Z,4.60
2023-05-12T12:28:50.361Z,3.28
2023-05-12T12:33:48.515Z,3.30
2023-05-12T12:36:17.525Z,2.92
2023-05-12T12:38:44.845Z,2.55
2023-05-12T12:41:11.410Z,4.00
2023-05-12T12:43:40.376Z,6.00
2023-05-12T12:46:09.351Z,2.63
2023-05-12T12:48:35.896Z,3.72
2023-05-12T12:51:07.580Z,4.10
2023-05-12T12:53:34.502Z,3.00
2023-05-12T12:56:03.924Z,2.35
2023-05-12T12:58:30.464Z,3.50
2023-05-12T13:00:57.408Z,3.37
2023-05-12T13:03:26.351Z,6.75
2023-05-12T13:05:52.887Z,3.55
2023-05-12T13:08:19.468Z,4.55
2023-05-12T13:10:48.315Z,3.37
2023-05-12T13:13:17.288Z,5.28
2023-05-12T13:15:43.925Z,3.90
2023-05-12T13:18:12.735Z,2.67
2023-05-12T13:20:42.415Z,4.10
2023-05-12T13:23:09.332Z,3.90
2023-05-12T13:25:35.895Z,7.47
2023-05-12T13:28:04.526Z,3.00
2023-05-12T13:30:31.239Z,7.10
2023-05-12T13:32:57.778Z,3.13
2023-05-12T13:35:26.713Z,3.30
2023-05-12T13:37:53.668Z,4.13
2023-05-12T13:40:20.606Z,5.75
2023-05-12T13:42:51.827Z,3.58
2023-05-12T13:45:19.783Z,4.65
2023-05-12T13:47:46.455Z,3.90
2023-05-12T13:50:13.444Z,3.93
2023-05-12T13:52:42.597Z,4.53
2023-05-12T13:55:09.932Z,6.00
2023-05-12T14:00:09.078Z,2.63
2023-05-12T14:02:38.305Z,4.45
2023-05-12T14:05:07.432Z,3.55
2023-05-12T14:07:36.208Z,4.93
2023-05-12T14:10:05.204Z,2.97
2023-05-12T14:12:37.361Z,4.82
2023-05-12T14:15:19.916Z,3.75
2023-05-12T14:17:50.968Z,3.13
2023-05-12T14:20:17.649Z,3.05
2023-05-12T14:22:44.125Z,4.87
2023-05-12T14:25:16.111Z,3.28
2023-05-12T14:27:42.640Z,3.08
2023-05-12T14:30:12.177Z,4.97
2023-05-12T14:32:38.757Z,5.65
2023-05-12T14:35:11.031Z,3.57
2023-05-12T14:37:39.905Z,3.38
2023-05-12T14:40:07.367Z,7.10
2023-05-12T14:45:00.663Z,4.45
2023-05-12T14:47:27.204Z,3.50
2023-05-12T14:49:57.694Z,5.13
2023-05-12T14:52:24.310Z,4.78
2023-05-12T14:54:50.821Z,3.10
2023-05-12T14:57:17.515Z,4.55
2023-05-12T14:59:44.021Z,4.30
2023-05-12T15:02:18.415Z,3.00
2023-05-12T15:04:49.959Z,3.03
2023-05-12T15:07:16.448Z,6.20
2023-05-12T15:09:45.002Z,4.30
2023-05-12T15:12:13.903Z,3.92
2023-05-12T15:14:40.476Z,6.78
2023-05-12T15:17:07.038Z,2.93
2023-05-12T15:19:33.516Z,2.90
2023-05-12T15:22:02.253Z,6.38
2023-05-12T15:24:31.778Z,4.82
2023-05-12T15:26:58.305Z,2.63
2023-05-12T15:29:24.822Z,5.28
2023-05-12T15:31:54.485Z,5.97
2023-05-12T15:34:21.182Z,3.65
2023-05-12T15:36:48.890Z,4.27
2023-05-12T15:39:21.811Z,4.55
2023-05-12T15:41:53.997Z,12.10
2023-05-12T15:44:20.488Z,7.13
2023-05-12T15:46:52.043Z,7.35
2023-05-12T15:49:19.047Z,5.22
2023-05-12T15:51:45.706Z,4.22
2023-05-12T15:54:12.664Z,8.67
2023-05-12T15:56:41.760Z,3.78
2023-05-12T15:59:08.388Z,6.00
2023-05-12T16:01:36.142Z,11.55
2023-05-12T16:04:05.007Z,5.38
2023-05-12T16:06:31.570Z,5.05
2023-05-12T16:08:58.081Z,4.93
2023-05-12T16:11:25.628Z,3.70
2023-05-12T16:13:54.255Z,4.45
2023-05-12T16:16:24.766Z,4.97
2023-05-12T16:18:56.249Z,3.97
2023-05-12T16:21:25.218Z,3.33
2023-05-12T16:23:51.758Z,4.45
2023-05-12T16:26:20.669Z,4.43
2023-05-12T16:28:47.607Z,4.78
2023-05-12T16:31:17.909Z,3.42
2023-05-12T16:33:44.659Z,6.00
2023-05-12T16:36:11.449Z,5.97
2023-05-12T16:38:38.422Z,6.70
2023-05-12T16:41:04.977Z,7.20
2023-05-12T16:43:33.749Z,8.73
2023-05-12T16:46:01.982Z,5.65
2023-05-12T16:48:34.459Z,6.80
2023-05-12T16:51:05.409Z,8.10
2023-05-12T16:53:36.699Z,5.18
2023-05-12T16:56:08.136Z,6.07
2023-05-12T16:58:35.103Z,8.20
2023-05-12T17:01:02.301Z,5.03
2023-05-12T17:03:31.980Z,6.45
2023-05-12T17:06:01.207Z,6.72
2023-05-12T17:08:27.716Z,8.25
2023-05-12T17:10:56.435Z,7.50
2023-05-12T17:13:23.348Z,8.98
2023-05-12T17:15:51.178Z,5.97
2023-05-12T17:20:44.313Z,5.83
2023-05-12T17:23:12.728Z,6.93
2023-05-12T17:25:39.729Z,13.88
2023-05-12T17:28:08.594Z,8.02
2023-05-12T17:30:35.136Z,11.35
2023-05-12T17:33:08.891Z,7.88
2023-05-12T17:35:35.807Z,6.78
2023-05-12T17:38:02.358Z,6.20
2023-05-12T17:40:29.098Z,9.88
2023-05-12T17:42:57.913Z,5.57
2023-05-12T17:45:31.248Z,6.03
2023-05-12T17:47:57.878Z,5.32
2023-05-12T17:50:26.889Z,5.38
2023-05-12T17:52:54.953Z,4.38
2023-05-12T17:55:22.949Z,5.93
2023-05-12T17:57:51.914Z,4.18
2023-05-12T18:00:20.781Z,7.10
2023-05-12T18:02:49.733Z,6.35
2023-05-12T18:05:16.546Z,8.35
2023-05-12T18:07:43.204Z,4.55
2023-05-12T18:10:12.996Z,5.38
2023-05-12T18:12:42.496Z,3.28
2023-05-12T18:15:11.563Z,3.38
2023-05-12T18:17:40.551Z,3.50
2023-05-12T18:20:08.185Z,4.05
2023-05-12T18:22:37.199Z,4.15
2023-05-12T18:25:05.998Z,2.60
2023-05-12T18:27:32.509Z,3.38
2023-05-12T18:29:59.004Z,3.05
2023-05-12T18:32:26.291Z,6.82
2023-05-12T18:34:52.922Z,3.60
2023-05-12T18:37:25.299Z,3.85
2023-05-12T18:39:54.495Z,3.35
2023-05-12T18:42:26.335Z,6.57
2023-05-12T18:44:53.960Z,3.58
2023-05-12T18:49:49.353Z,4.45
2023-05-12T18:52:15.926Z,7.80
2023-05-12T18:54:42.430Z,4.95
2023-05-12T18:57:12.349Z,6.50
2023-05-12T18:59:41.250Z,3.03
2023-05-12T19:02:07.978Z,10.27
2023-05-12T19:04:37.146Z,3.53
2023-05-12T19:07:04.210Z,4.50
2023-05-12T19:09:30.794Z,8.98
2023-05-12T19:11:59.606Z,4.00
2023-05-12T19:14:26.412Z,11.18
2023-05-12T19:16:53.118Z,4.45
2023-05-12T19:19:19.966Z,6.82
2023-05-12T19:21:46.629Z,3.57
2023-05-12T19:24:14.068Z,3.63
2023-05-12T19:26:43.137Z,3.17
2023-05-12T19:29:12.201Z,5.60
2023-05-12T19:31:41.097Z,4.72
2023-05-12T19:34:10.053Z,6.20
2023-05-12T19:36:39.103Z,4.85
2023-05-12T19:39:05.716Z,5.50
2023-05-12T19:41:34.709Z,5.03
2023-05-12T19:44:01.252Z,9.38
2023-05-12T19:46:30.297Z,4.13
2023-05-12T19:48:59.301Z,4.70
2023-05-12T19:51:25.855Z,5.10
2023-05-12T19:53:54.665Z,3.80
2023-05-12T19:56:24.199Z,6.72
2023-05-12T19:58:52.264Z,4.97
2023-05-12T20:01:21.900Z,7.47
2023-05-12T20:03:48.510Z,4.60
2023-05-12T20:06:20.548Z,4.95
2023-05-12T20:08:49.384Z,3.83
2023-05-12T20:11:18.125Z,3.60
2023-05-12T20:13:49.437Z,4.90
2023-05-12T20:16:16.087Z,4.68
2023-05-12T20:18:42.690Z,6.05
2023-05-12T20:21:09.154Z,3.95
2023-05-12T20:23:38.232Z,4.00
2023-05-12T20:26:04.981Z,5.03
2023-05-12T20:28:33.563Z,4.25
2023-05-12T20:31:02.756Z,6.95
2023-05-12T20:33:32.255Z,16.75
2023-05-12T20:36:01.245Z,13.05
2023-05-12T20:38:28.023Z,3.80
2023-05-12T20:40:54.660Z,9.48
2023-05-12T20:43:21.528Z,6.35
2023-05-12T20:45:48.167Z,6.43
2023-05-12T20:48:17.247Z,4.78
2023-05-12T20:50:43.726Z,4.72
2023-05-12T20:53:10.213Z,5.72
2023-05-12T20:55:36.819Z,4.63
2023-05-12T20:58:03.333Z,4.22
2023-05-12T21:00:29.802Z,7.82
2023-05-12T21:02:59.666Z,7.05
2023-05-12T21:05:26.367Z,5.53
2023-05-12T21:07:52.912Z,4.47
2023-05-12T21:10:19.901Z,8.25
2023-05-12T21:12:49.155Z,6.90
2023-05-12T21:15:18.152Z,9.55
2023-05-12T21:17:44.783Z,17.48
2023-05-12T21:20:12.145Z,5.88
2023-05-12T21:22:40.615Z,4.78
2023-05-12T21:25:10.366Z,8.43
2023-05-12T21:27:45.994Z,4.50
2023-05-12T21:30:12.810Z,4.75
2023-05-12T21:32:39.796Z,6.60
2023-05-12T21:35:10.029Z,6.63
2023-05-12T21:37:39.458Z,6.53
2023-05-12T21:40:09.928Z,4.60
2023-05-12T21:42:41.282Z,6.70
2023-05-12T21:45:08.431Z,5.95
2023-05-12T21:47:35.025Z,6.47
2023-05-12T21:50:03.661Z,5.00
2023-05-12T21:52:30.371Z,6.53
2023-05-12T21:54:56.856Z,5.15
2023-05-12T21:57:24.422Z,5.18
2023-05-12T21:59:53.875Z,7.82
2023-05-12T22:02:20.757Z,5.13
2023-05-12T22:04:49.728Z,11.20
2023-05-12T22:07:18.891Z,8.73
2023-05-12T22:09:47.809Z,6.47
2023-05-12T22:12:17.634Z,6.47
2023-05-12T22:14:44.947Z,6.72
2023-05-12T22:17:11.457Z,8.73
2023-05-12T22:19:38.334Z,5.18
2023-05-12T22:22:04.945Z,5.28
2023-05-12T22:24:31.519Z,6.97
2023-05-12T22:27:00.501Z,9.23
2023-05-12T22:29:26.962Z,9.07
2023-05-12T22:31:54.810Z,4.95
2023-05-12T22:36:47.829Z,5.97
2023-05-12T22:39:14.694Z,4.30
2023-05-12T22:41:46.073Z,5.00
2023-05-12T22:44:12.575Z,4.30
2023-05-12T22:46:42.037Z,4.57
2023-05-12T22:49:11.023Z,4.43
2023-05-12T22:51:37.506Z,3.90
2023-05-12T22:54:06.506Z,4.45
2023-05-12T22:56:36.062Z,6.32
2023-05-12T22:59:02.624Z,3.95
2023-05-12T23:01:29.146Z,8.45
2023-05-12T23:03:55.655Z,5.00
2023-05-12T23:06:22.570Z,4.13
2023-05-12T23:08:49.327Z,3.53
2023-05-12T23:11:18.832Z,4.63
2023-05-12T23:13:45.343Z,9.30
2023-05-12T23:16:11.831Z,7.13
2023-05-12T23:18:38.368Z,4.18
2023-05-12T23:21:04.900Z,4.57
2023-05-12T23:23:32.987Z,5.35
2023-05-12T23:26:04.662Z,5.70
2023-05-12T23:28:33.320Z,4.75
2023-05-12T23:31:03.432Z,8.10
2023-05-12T23:33:30.103Z,5.18
2023-05-12T23:35:56.744Z,4.05
2023-05-12T23:38:25.889Z,3.58
2023-05-12T23:40:54.657Z,4.15
2023-05-12T23:43:21.211Z,5.82
2023-05-12T23:45:47.881Z,11.13
2023-05-12T23:48:16.635Z,10.25
2023-05-12T23:50:43.106Z,10.30
2023-05-12T23:53:11.701Z,8.13
2023-05-12T23:55:38.283Z,4.28
2023-05-12T23:58:04.867Z,7.70
